Terminal Aerodrome Forecast
Issued by NWS

Home | Current Version | Previous Version | Text Only | Print | Product List | Glossary On
Versions: 1 2 3 4 5 6 7 8 9 10 11 12 13 14 15 16 17 18 19 20 21 22 23 24
567
FTUS45 KRIW 301121
TAFPNA
TAF
KPNA 301121Z 3012/0112 30005KT P6SM VCFG FEW005 SCT100
     FM301500 30005KT P6SM SCT100
     FM302000 30008KT P6SM SCT080 BKN100
     FM302300 30008KT P6SM VCSH BKN090
     FM010300 30006KT P6SM BKN090
      AMD LTD TO CLD VIS AND WIND=

USA.gov is the U.S. government's official web portal to all federal, state and local government web resources and services.